sensor_id;sensor_type;location;lat;lon;timestamp;temperature;humidity
9305;DHT22;4690;52.422;13.486;2023-03-31T00:04:24;10.20;99.90
9305;DHT22;4690;52.422;13.486;2023-03-31T00:06:50;10.10;99.90
9305;DHT22;4690;52.422;13.486;2023-03-31T00:09:19;10.10;99.90
9305;DHT22;4690;52.422;13.486;2023-03-31T00:11:47;10.10;99.90
9305;DHT22;4690;52.422;13.486;2023-03-31T00:14:17;10.10;99.90
9305;DHT22;4690;52.422;13.486;2023-03-31T00:16:44;10.10;99.90
9305;DHT22;4690;52.422;13.486;2023-03-31T00:19:12;10.10;99.90
9305;DHT22;4690;52.422;13.486;2023-03-31T00:21:48;10.10;99.90
9305;DHT22;4690;52.422;13.486;2023-03-31T00:24:16;10.10;99.90
9305;DHT22;4690;52.422;13.486;2023-03-31T00:26:43;10.10;99.90
9305;DHT22;4690;52.422;13.486;2023-03-31T00:29:11;10.10;99.90
9305;DHT22;4690;52.422;13.486;2023-03-31T00:31:38;10.10;99.90
9305;DHT22;4690;52.422;13.486;2023-03-31T00:34:05;10.10;99.90
9305;DHT22;4690;52.422;13.486;2023-03-31T00:36:31;10.10;99.90
9305;DHT22;4690;52.422;13.486;2023-03-31T00:39:02;10.10;99.90
9305;DHT22;4690;52.422;13.486;2023-03-31T00:41:36;10.20;99.90
9305;DHT22;4690;52.422;13.486;2023-03-31T00:44:15;10.20;99.90
9305;DHT22;4690;52.422;13.486;2023-03-31T00:49:40;10.20;99.90
9305;DHT22;4690;52.422;13.486;2023-03-31T00:52:23;10.20;99.90
9305;DHT22;4690;52.422;13.486;2023-03-31T00:55:01;10.20;99.90
9305;DHT22;4690;52.422;13.486;2023-03-31T00:57:33;10.20;99.90
9305;DHT22;4690;52.422;13.486;2023-03-31T01:00:06;10.10;99.90
9305;DHT22;4690;52.422;13.486;2023-03-31T01:02:38;10.10;99.90
9305;DHT22;4690;52.422;13.486;2023-03-31T01:05:07;10.00;99.90
9305;DHT22;4690;52.422;13.486;2023-03-31T01:07:41;10.00;99.90
9305;DHT22;4690;52.422;13.486;2023-03-31T01:10:11;10.00;99.90
9305;DHT22;4690;52.422;13.486;2023-03-31T01:12:40;10.00;99.90
9305;DHT22;4690;52.422;13.486;2023-03-31T01:15:09;9.90;99.90
9305;DHT22;4690;52.422;13.486;2023-03-31T01:17:36;9.90;99.90
9305;DHT22;4690;52.422;13.486;2023-03-31T01:20:16;9.80;99.90
9305;DHT22;4690;52.422;13.486;2023-03-31T01:46:21;9.70;99.90
9305;DHT22;4690;52.422;13.486;2023-03-31T01:49:12;9.70;99.90
9305;DHT22;4690;52.422;13.486;2023-03-31T01:52:19;9.80;99.90
9305;DHT22;4690;52.422;13.486;2023-03-31T01:54:53;9.80;99.90
9305;DHT22;4690;52.422;13.486;2023-03-31T02:00:32;9.90;99.90
9305;DHT22;4690;52.422;13.486;2023-03-31T02:03:10;9.80;99.90
9305;DHT22;4690;52.422;13.486;2023-03-31T02:05:50;9.90;99.90
9305;DHT22;4690;52.422;13.486;2023-03-31T02:08:25;9.80;99.90
9305;DHT22;4690;52.422;13.486;2023-03-31T02:10:56;9.80;99.90
9305;DHT22;4690;52.422;13.486;2023-03-31T02:13:26;9.80;99.90
9305;DHT22;4690;52.422;13.486;2023-03-31T02:15:59;9.80;99.90
9305;DHT22;4690;52.422;13.486;2023-03-31T02:18:32;9.80;99.90
9305;DHT22;4690;52.422;13.486;2023-03-31T02:21:04;9.80;99.90
9305;DHT22;4690;52.422;13.486;2023-03-31T02:23:34;9.80;99.90
9305;DHT22;4690;52.422;13.486;2023-03-31T02:26:10;9.70;99.90
9305;DHT22;4690;52.422;13.486;2023-03-31T02:28:37;9.70;99.90
9305;DHT22;4690;52.422;13.486;2023-03-31T02:33:48;9.70;99.90
9305;DHT22;4690;52.422;13.486;2023-03-31T02:36:14;9.80;99.90
9305;DHT22;4690;52.422;13.486;2023-03-31T02:38:58;9.80;99.90
9305;DHT22;4690;52.422;13.486;2023-03-31T02:41:27;9.80;99.90
9305;DHT22;4690;52.422;13.486;2023-03-31T02:43:53;9.80;99.90
9305;DHT22;4690;52.422;13.486;2023-03-31T02:46:20;9.80;99.90
9305;DHT22;4690;52.422;13.486;2023-03-31T02:48:50;9.80;99.90
9305;DHT22;4690;52.422;13.486;2023-03-31T03:03:13;9.80;99.90
9305;DHT22;4690;52.422;13.486;2023-03-31T03:11:06;9.90;99.90
9305;DHT22;4690;52.422;13.486;2023-03-31T03:19:20;9.90;99.90
9305;DHT22;4690;52.422;13.486;2023-03-31T03:21:48;9.90;99.90
9305;DHT22;4690;52.422;13.486;2023-03-31T03:24:15;9.90;99.90
9305;DHT22;4690;52.422;13.486;2023-03-31T03:26:45;9.90;99.90
9305;DHT22;4690;52.422;13.486;2023-03-31T03:29:11;9.90;99.90
9305;DHT22;4690;52.422;13.486;2023-03-31T03:31:39;9.90;99.90
9305;DHT22;4690;52.422;13.486;2023-03-31T03:34:06;10.00;99.90
9305;DHT22;4690;52.422;13.486;2023-03-31T03:36:34;10.00;99.90
9305;DHT22;4690;52.422;13.486;2023-03-31T03:39:02;9.90;99.90
9305;DHT22;4690;52.422;13.486;2023-03-31T03:41:29;9.90;99.90
9305;DHT22;4690;52.422;13.486;2023-03-31T03:43:57;10.00;99.90
9305;DHT22;4690;52.422;13.486;2023-03-31T03:46:24;10.00;99.90
9305;DHT22;4690;52.422;13.486;2023-03-31T03:48:50;9.90;99.90
9305;DHT22;4690;52.422;13.486;2023-03-31T03:51:16;9.90;99.90
9305;DHT22;4690;52.422;13.486;2023-03-31T03:53:42;9.90;99.90
9305;DHT22;4690;52.422;13.486;2023-03-31T03:56:08;9.90;99.90
9305;DHT22;4690;52.422;13.486;2023-03-31T03:58:33;9.90;99.90
9305;DHT22;4690;52.422;13.486;2023-03-31T04:00:59;9.90;99.90
9305;DHT22;4690;52.422;13.486;2023-03-31T04:03:25;9.90;99.90
9305;DHT22;4690;52.422;13.486;2023-03-31T04:05:51;9.90;99.90
9305;DHT22;4690;52.422;13.486;2023-03-31T04:08:17;9.90;99.90
9305;DHT22;4690;52.422;13.486;2023-03-31T04:10:48;9.90;99.90
9305;DHT22;4690;52.422;13.486;2023-03-31T04:13:16;9.90;99.90
9305;DHT22;4690;52.422;13.486;2023-03-31T04:15:43;9.80;99.90
9305;DHT22;4690;52.422;13.486;2023-03-31T04:18:10;9.90;99.90
9305;DHT22;4690;52.422;13.486;2023-03-31T04:20:46;9.80;99.90
9305;DHT22;4690;52.422;13.486;2023-03-31T04:23:20;9.90;99.90
9305;DHT22;4690;52.422;13.486;2023-03-31T04:25:49;9.90;99.90
9305;DHT22;4690;52.422;13.486;2023-03-31T04:28:15;9.90;99.90
9305;DHT22;4690;52.422;13.486;2023-03-31T04:30:41;9.90;99.90
9305;DHT22;4690;52.422;13.486;2023-03-31T04:33:07;9.90;99.90
9305;DHT22;4690;52.422;13.486;2023-03-31T04:35:33;9.80;99.90
9305;DHT22;4690;52.422;13.486;2023-03-31T04:38:24;9.80;99.90
9305;DHT22;4690;52.422;13.486;2023-03-31T04:40:52;9.80;99.90
9305;DHT22;4690;52.422;13.486;2023-03-31T04:43:19;9.70;99.90
9305;DHT22;4690;52.422;13.486;2023-03-31T04:45:46;9.70;99.90
9305;DHT22;4690;52.422;13.486;2023-03-31T04:48:11;9.70;99.90
9305;DHT22;4690;52.422;13.486;2023-03-31T04:50:37;9.60;99.90
9305;DHT22;4690;52.422;13.486;2023-03-31T04:53:04;9.60;99.90
9305;DHT22;4690;52.422;13.486;2023-03-31T04:55:30;9.60;99.90
9305;DHT22;4690;52.422;13.486;2023-03-31T04:57:57;9.50;99.90
9305;DHT22;4690;52.422;13.486;2023-03-31T05:00:23;9.50;99.90
9305;DHT22;4690;52.422;13.486;2023-03-31T05:02:49;9.50;99.90
9305;DHT22;4690;52.422;13.486;2023-03-31T05:05:16;9.60;99.90
9305;DHT22;4690;52.422;13.486;2023-03-31T05:07:42;9.60;99.90
9305;DHT22;4690;52.422;13.486;2023-03-31T05:10:08;9.60;99.90
9305;DHT22;4690;52.422;13.486;2023-03-31T05:12:34;9.60;99.90
9305;DHT22;4690;52.422;13.486;2023-03-31T05:15:02;9.60;99.90
9305;DHT22;4690;52.422;13.486;2023-03-31T05:17:33;9.70;99.90
9305;DHT22;4690;52.422;13.486;2023-03-31T05:20:01;9.70;99.90
9305;DHT22;4690;52.422;13.486;2023-03-31T05:22:33;9.70;99.90
9305;DHT22;4690;52.422;13.486;2023-03-31T05:25:01;9.70;99.90
9305;DHT22;4690;52.422;13.486;2023-03-31T05:27:28;9.70;99.90
9305;DHT22;4690;52.422;13.486;2023-03-31T05:29:54;9.70;99.90
9305;DHT22;4690;52.422;13.486;2023-03-31T05:32:20;9.70;99.90
9305;DHT22;4690;52.422;13.486;2023-03-31T05:34:46;9.70;99.90
9305;DHT22;4690;52.422;13.486;2023-03-31T05:37:12;9.70;99.90
9305;DHT22;4690;52.422;13.486;2023-03-31T05:39:38;9.70;99.90
9305;DHT22;4690;52.422;13.486;2023-03-31T05:42:04;9.70;99.90
9305;DHT22;4690;52.422;13.486;2023-03-31T05:44:30;9.70;99.90
9305;DHT22;4690;52.422;13.486;2023-03-31T05:46:56;9.80;99.90
9305;DHT22;4690;52.422;13.486;2023-03-31T05:49:22;9.90;99.90
9305;DHT22;4690;52.422;13.486;2023-03-31T05:51:47;10.00;99.90
9305;DHT22;4690;52.422;13.486;2023-03-31T05:54:13;10.10;99.90
9305;DHT22;4690;52.422;13.486;2023-03-31T05:56:39;10.30;99.90
9305;DHT22;4690;52.422;13.486;2023-03-31T05:59:05;10.20;99.90
9305;DHT22;4690;52.422;13.486;2023-03-31T06:01:30;10.40;99.90
9305;DHT22;4690;52.422;13.486;2023-03-31T06:03:56;10.50;99.90
9305;DHT22;4690;52.422;13.486;2023-03-31T06:06:22;10.50;99.90
9305;DHT22;4690;52.422;13.486;2023-03-31T06:08:49;10.40;99.90
9305;DHT22;4690;52.422;13.486;2023-03-31T06:11:20;10.50;99.90
9305;DHT22;4690;52.422;13.486;2023-03-31T06:13:47;10.40;99.90
9305;DHT22;4690;52.422;13.486;2023-03-31T06:16:14;10.30;99.90
9305;DHT22;4690;52.422;13.486;2023-03-31T06:18:44;10.30;99.90
9305;DHT22;4690;52.422;13.486;2023-03-31T06:21:15;10.30;99.90
9305;DHT22;4690;52.422;13.486;2023-03-31T06:23:42;10.40;99.90
9305;DHT22;4690;52.422;13.486;2023-03-31T06:26:16;10.80;99.90
9305;DHT22;4690;52.422;13.486;2023-03-31T06:28:44;11.10;99.90
9305;DHT22;4690;52.422;13.486;2023-03-31T06:31:13;11.60;99.90
9305;DHT22;4690;52.422;13.486;2023-03-31T06:33:42;11.90;99.90
9305;DHT22;4690;52.422;13.486;2023-03-31T06:36:09;11.90;99.90
9305;DHT22;4690;52.422;13.486;2023-03-31T06:38:37;11.70;99.90
9305;DHT22;4690;52.422;13.486;2023-03-31T06:41:05;11.80;99.90
9305;DHT22;4690;52.422;13.486;2023-03-31T06:43:31;12.40;99.90
9305;DHT22;4690;52.422;13.486;2023-03-31T06:45:57;12.50;99.90
9305;DHT22;4690;52.422;13.486;2023-03-31T06:48:24;12.80;99.90
9305;DHT22;4690;52.422;13.486;2023-03-31T06:50:52;13.10;99.90
9305;DHT22;4690;52.422;13.486;2023-03-31T06:53:19;13.30;99.90
9305;DHT22;4690;52.422;13.486;2023-03-31T06:55:46;13.70;99.90
9305;DHT22;4690;52.422;13.486;2023-03-31T06:58:12;14.00;99.90
9305;DHT22;4690;52.422;13.486;2023-03-31T07:00:38;14.70;99.90
9305;DHT22;4690;52.422;13.486;2023-03-31T07:03:05;14.40;99.90
9305;DHT22;4690;52.422;13.486;2023-03-31T07:05:31;14.50;99.90
9305;DHT22;4690;52.422;13.486;2023-03-31T07:07:58;14.40;99.90
9305;DHT22;4690;52.422;13.486;2023-03-31T07:10:27;14.40;99.90
9305;DHT22;4690;52.422;13.486;2023-03-31T07:12:55;14.40;99.90
9305;DHT22;4690;52.422;13.486;2023-03-31T07:15:21;14.20;99.90
9305;DHT22;4690;52.422;13.486;2023-03-31T07:17:49;13.90;99.90
9305;DHT22;4690;52.422;13.486;2023-03-31T07:20:26;13.80;99.90
9305;DHT22;4690;52.422;13.486;2023-03-31T07:22:52;13.70;99.90
9305;DHT22;4690;52.422;13.486;2023-03-31T07:25:18;13.60;99.90
9305;DHT22;4690;52.422;13.486;2023-03-31T07:27:45;13.30;99.90
9305;DHT22;4690;52.422;13.486;2023-03-31T07:30:14;13.60;99.90
9305;DHT22;4690;52.422;13.486;2023-03-31T07:32:41;13.80;99.90
9305;DHT22;4690;52.422;13.486;2023-03-31T07:35:09;14.30;99.90
9305;DHT22;4690;52.422;13.486;2023-03-31T07:37:43;14.90;99.90
9305;DHT22;4690;52.422;13.486;2023-03-31T07:40:18;14.50;99.90
9305;DHT22;4690;52.422;13.486;2023-03-31T07:42:47;14.50;99.90
9305;DHT22;4690;52.422;13.486;2023-03-31T07:45:14;14.60;99.90
9305;DHT22;4690;52.422;13.486;2023-03-31T07:47:41;14.50;99.90
9305;DHT22;4690;52.422;13.486;2023-03-31T07:50:09;14.80;99.90
9305;DHT22;4690;52.422;13.486;2023-03-31T07:52:35;15.10;99.90
9305;DHT22;4690;52.422;13.486;2023-03-31T07:55:01;15.20;99.90
9305;DHT22;4690;52.422;13.486;2023-03-31T07:57:28;15.00;99.90
9305;DHT22;4690;52.422;13.486;2023-03-31T07:59:53;15.20;99.90
9305;DHT22;4690;52.422;13.486;2023-03-31T08:02:19;15.30;99.90
9305;DHT22;4690;52.422;13.486;2023-03-31T08:04:46;15.20;99.90
9305;DHT22;4690;52.422;13.486;2023-03-31T08:07:13;14.80;99.90
9305;DHT22;4690;52.422;13.486;2023-03-31T08:09:43;14.40;99.90
9305;DHT22;4690;52.422;13.486;2023-03-31T08:12:11;14.40;99.90
9305;DHT22;4690;52.422;13.486;2023-03-31T08:14:38;14.30;99.90
9305;DHT22;4690;52.422;13.486;2023-03-31T08:17:04;14.00;99.90
9305;DHT22;4690;52.422;13.486;2023-03-31T08:19:30;14.10;99.90
9305;DHT22;4690;52.422;13.486;2023-03-31T08:21:56;14.10;99.90
9305;DHT22;4690;52.422;13.486;2023-03-31T08:24:21;14.10;99.90
9305;DHT22;4690;52.422;13.486;2023-03-31T08:26:47;14.40;99.90
9305;DHT22;4690;52.422;13.486;2023-03-31T08:29:13;14.40;99.90
9305;DHT22;4690;52.422;13.486;2023-03-31T08:31:39;14.10;99.90
9305;DHT22;4690;52.422;13.486;2023-03-31T08:34:05;14.10;99.90
9305;DHT22;4690;52.422;13.486;2023-03-31T08:36:31;14.00;99.90
9305;DHT22;4690;52.422;13.486;2023-03-31T08:38:58;14.00;99.90
9305;DHT22;4690;52.422;13.486;2023-03-31T08:41:36;14.50;99.90
9305;DHT22;4690;52.422;13.486;2023-03-31T08:44:22;14.10;99.90
9305;DHT22;4690;52.422;13.486;2023-03-31T08:46:57;14.10;99.90
9305;DHT22;4690;52.422;13.486;2023-03-31T08:49:26;14.00;99.90
9305;DHT22;4690;52.422;13.486;2023-03-31T08:52:02;14.10;99.90
9305;DHT22;4690;52.422;13.486;2023-03-31T08:54:33;13.90;99.90
9305;DHT22;4690;52.422;13.486;2023-03-31T08:57:31;13.80;99.90
9305;DHT22;4690;52.422;13.486;2023-03-31T09:00:18;13.80;99.90
9305;DHT22;4690;52.422;13.486;2023-03-31T09:03:09;13.90;99.90
9305;DHT22;4690;52.422;13.486;2023-03-31T09:11:08;13.70;99.90
9305;DHT22;4690;52.422;13.486;2023-03-31T09:16:37;14.40;99.90
9305;DHT22;4690;52.422;13.486;2023-03-31T09:19:37;14.60;99.90
9305;DHT22;4690;52.422;13.486;2023-03-31T09:22:36;15.00;99.90
9305;DHT22;4690;52.422;13.486;2023-03-31T09:25:26;15.20;99.90
9305;DHT22;4690;52.422;13.486;2023-03-31T09:27:58;14.90;99.90
9305;DHT22;4690;52.422;13.486;2023-03-31T09:30:28;15.00;99.90
9305;DHT22;4690;52.422;13.486;2023-03-31T09:35:36;14.80;99.90
9305;DHT22;4690;52.422;13.486;2023-03-31T09:38:02;14.70;99.90
9305;DHT22;4690;52.422;13.486;2023-03-31T09:40:29;14.40;99.90
9305;DHT22;4690;52.422;13.486;2023-03-31T09:43:03;14.30;99.90
9305;DHT22;4690;52.422;13.486;2023-03-31T09:45:30;14.40;99.90
9305;DHT22;4690;52.422;13.486;2023-03-31T09:48:01;14.40;99.90
9305;DHT22;4690;52.422;13.486;2023-03-31T09:50:34;14.50;99.90
9305;DHT22;4690;52.422;13.486;2023-03-31T09:53:14;14.70;99.90
9305;DHT22;4690;52.422;13.486;2023-03-31T09:55:51;14.80;99.90
9305;DHT22;4690;52.422;13.486;2023-03-31T09:58:18;14.90;99.90
9305;DHT22;4690;52.422;13.486;2023-03-31T10:00:58;14.80;99.90
9305;DHT22;4690;52.422;13.486;2023-03-31T10:03:27;15.00;99.90
9305;DHT22;4690;52.422;13.486;2023-03-31T10:05:56;14.70;99.90
9305;DHT22;4690;52.422;13.486;2023-03-31T10:08:25;14.70;99.90
9305;DHT22;4690;52.422;13.486;2023-03-31T10:13:37;14.40;99.90
9305;DHT22;4690;52.422;13.486;2023-03-31T10:16:34;14.10;99.90
9305;DHT22;4690;52.422;13.486;2023-03-31T10:19:28;14.10;99.90
9305;DHT22;4690;52.422;13.486;2023-03-31T10:21:59;14.30;99.90
9305;DHT22;4690;52.422;13.486;2023-03-31T10:24:39;14.50;99.90
9305;DHT22;4690;52.422;13.486;2023-03-31T10:27:29;15.00;99.90
9305;DHT22;4690;52.422;13.486;2023-03-31T10:30:01;15.40;99.90
9305;DHT22;4690;52.422;13.486;2023-03-31T10:32:38;15.60;99.90
9305;DHT22;4690;52.422;13.486;2023-03-31T10:35:32;15.60;99.90
9305;DHT22;4690;52.422;13.486;2023-03-31T10:38:10;15.00;99.90
9305;DHT22;4690;52.422;13.486;2023-03-31T10:40:51;14.80;99.90
9305;DHT22;4690;52.422;13.486;2023-03-31T10:43:28;14.90;99.90
9305;DHT22;4690;52.422;13.486;2023-03-31T10:46:01;14.90;99.90
9305;DHT22;4690;52.422;13.486;2023-03-31T10:48:33;14.80;99.90
9305;DHT22;4690;52.422;13.486;2023-03-31T10:51:10;14.60;99.90
9305;DHT22;4690;52.422;13.486;2023-03-31T10:53:51;14.50;99.90
9305;DHT22;4690;52.422;13.486;2023-03-31T10:59:38;14.20;99.90
9305;DHT22;4690;52.422;13.486;2023-03-31T11:03:00;14.00;99.90
9305;DHT22;4690;52.422;13.486;2023-03-31T11:06:04;13.60;99.90
9305;DHT22;4690;52.422;13.486;2023-03-31T11:12:13;13.30;99.90
9305;DHT22;4690;52.422;13.486;2023-03-31T11:17:25;13.10;99.90
9305;DHT22;4690;52.422;13.486;2023-03-31T11:20:38;13.20;99.90
9305;DHT22;4690;52.422;13.486;2023-03-31T11:23:38;13.30;99.90
9305;DHT22;4690;52.422;13.486;2023-03-31T11:41:53;13.90;99.90
9305;DHT22;4690;52.422;13.486;2023-03-31T11:44:05;13.90;99.90
9305;DHT22;4690;52.422;13.486;2023-03-31T11:46:56;14.00;99.90
9305;DHT22;4690;52.422;13.486;2023-03-31T11:49:31;13.90;99.90
9305;DHT22;4690;52.422;13.486;2023-03-31T11:52:17;13.90;99.90
9305;DHT22;4690;52.422;13.486;2023-03-31T11:55:02;13.90;99.90
9305;DHT22;4690;52.422;13.486;2023-03-31T11:57:49;13.90;99.90
9305;DHT22;4690;52.422;13.486;2023-03-31T12:00:31;13.90;99.90
9305;DHT22;4690;52.422;13.486;2023-03-31T12:03:17;13.80;99.90
9305;DHT22;4690;52.422;13.486;2023-03-31T12:05:55;13.80;99.90
9305;DHT22;4690;52.422;13.486;2023-03-31T12:08:36;13.90;99.90
9305;DHT22;4690;52.422;13.486;2023-03-31T12:12:01;13.80;99.90
9305;DHT22;4690;52.422;13.486;2023-03-31T12:14:28;13.70;99.90
9305;DHT22;4690;52.422;13.486;2023-03-31T12:16:59;13.70;99.90
9305;DHT22;4690;52.422;13.486;2023-03-31T12:19:38;13.70;99.90
9305;DHT22;4690;52.422;13.486;2023-03-31T12:22:24;13.80;99.90
9305;DHT22;4690;52.422;13.486;2023-03-31T12:24:55;13.80;99.90
9305;DHT22;4690;52.422;13.486;2023-03-31T12:27:29;13.90;99.90
9305;DHT22;4690;52.422;13.486;2023-03-31T12:32:33;13.60;99.90
9305;DHT22;4690;52.422;13.486;2023-03-31T12:40:45;12.30;99.90
9305;DHT22;4690;52.422;13.486;2023-03-31T12:43:49;12.00;99.90
9305;DHT22;4690;52.422;13.486;2023-03-31T12:53:23;11.60;99.90
9305;DHT22;4690;52.422;13.486;2023-03-31T12:56:04;11.60;99.90
9305;DHT22;4690;52.422;13.486;2023-03-31T13:01:17;11.30;99.90
9305;DHT22;4690;52.422;13.486;2023-03-31T13:11:51;11.30;99.90
9305;DHT22;4690;52.422;13.486;2023-03-31T13:14:23;11.40;99.90
9305;DHT22;4690;52.422;13.486;2023-03-31T13:19:50;11.40;99.90
9305;DHT22;4690;52.422;13.486;2023-03-31T13:22:34;11.40;99.90
9305;DHT22;4690;52.422;13.486;2023-03-31T13:27:57;11.20;99.90
9305;DHT22;4690;52.422;13.486;2023-03-31T13:33:06;10.80;99.90
9305;DHT22;4690;52.422;13.486;2023-03-31T13:35:37;10.70;99.90
9305;DHT22;4690;52.422;13.486;2023-03-31T13:40:55;10.70;99.90
9305;DHT22;4690;52.422;13.486;2023-03-31T13:43:39;10.70;99.90
9305;DHT22;4690;52.422;13.486;2023-03-31T13:51:44;10.70;99.90
9305;DHT22;4690;52.422;13.486;2023-03-31T14:04:01;10.70;99.90
9305;DHT22;4690;52.422;13.486;2023-03-31T14:09:12;10.60;99.90
9305;DHT22;4690;52.422;13.486;2023-03-31T14:12:28;10.60;99.90
9305;DHT22;4690;52.422;13.486;2023-03-31T14:14:55;10.60;99.90
9305;DHT22;4690;52.422;13.486;2023-03-31T14:17:46;10.50;99.90
9305;DHT22;4690;52.422;13.486;2023-03-31T14:23:20;10.60;99.90
9305;DHT22;4690;52.422;13.486;2023-03-31T14:26:12;10.60;99.90
9305;DHT22;4690;52.422;13.486;2023-03-31T14:32:06;10.40;99.90
9305;DHT22;4690;52.422;13.486;2023-03-31T14:37:19;10.30;99.90
9305;DHT22;4690;52.422;13.486;2023-03-31T14:39:51;10.30;99.90
9305;DHT22;4690;52.422;13.486;2023-03-31T14:42:39;10.30;99.90
9305;DHT22;4690;52.422;13.486;2023-03-31T14:45:24;10.30;99.90
9305;DHT22;4690;52.422;13.486;2023-03-31T14:48:10;10.20;99.90
9305;DHT22;4690;52.422;13.486;2023-03-31T14:50:41;10.10;99.90
9305;DHT22;4690;52.422;13.486;2023-03-31T14:53:17;10.10;99.90
9305;DHT22;4690;52.422;13.486;2023-03-31T14:55:48;10.10;99.90
9305;DHT22;4690;52.422;13.486;2023-03-31T14:58:24;10.10;99.90
9305;DHT22;4690;52.422;13.486;2023-03-31T15:00:53;10.00;99.90
9305;DHT22;4690;52.422;13.486;2023-03-31T15:03:19;10.00;99.90
9305;DHT22;4690;52.422;13.486;2023-03-31T15:05:45;10.00;99.90
9305;DHT22;4690;52.422;13.486;2023-03-31T15:08:21;10.00;99.90
9305;DHT22;4690;52.422;13.486;2023-03-31T15:10:51;10.00;99.90
9305;DHT22;4690;52.422;13.486;2023-03-31T15:13:34;10.00;99.90
9305;DHT22;4690;52.422;13.486;2023-03-31T15:19:13;10.00;99.90
9305;DHT22;4690;52.422;13.486;2023-03-31T15:21:42;10.10;99.90
9305;DHT22;4690;52.422;13.486;2023-03-31T15:24:11;10.10;99.90
9305;DHT22;4690;52.422;13.486;2023-03-31T15:27:02;10.10;99.90
9305;DHT22;4690;52.422;13.486;2023-03-31T15:29:44;10.20;99.90
9305;DHT22;4690;52.422;13.486;2023-03-31T15:32:16;10.20;99.90
9305;DHT22;4690;52.422;13.486;2023-03-31T15:34:45;10.20;99.90
9305;DHT22;4690;52.422;13.486;2023-03-31T15:37:11;10.30;99.90
9305;DHT22;4690;52.422;13.486;2023-03-31T15:39:37;10.20;99.90
9305;DHT22;4690;52.422;13.486;2023-03-31T15:42:05;10.40;99.90
9305;DHT22;4690;52.422;13.486;2023-03-31T15:47:26;10.30;99.90
9305;DHT22;4690;52.422;13.486;2023-03-31T15:50:07;10.40;99.90
9305;DHT22;4690;52.422;13.486;2023-03-31T15:52:44;10.40;99.90
9305;DHT22;4690;52.422;13.486;2023-03-31T15:58:14;10.40;99.90
9305;DHT22;4690;52.422;13.486;2023-03-31T16:00:50;10.30;99.90
9305;DHT22;4690;52.422;13.486;2023-03-31T16:03:32;10.40;99.90
9305;DHT22;4690;52.422;13.486;2023-03-31T16:06:15;10.30;99.90
9305;DHT22;4690;52.422;13.486;2023-03-31T16:08:50;10.30;99.90
9305;DHT22;4690;52.422;13.486;2023-03-31T16:11:27;10.30;99.90
9305;DHT22;4690;52.422;13.486;2023-03-31T16:14:06;10.30;99.90
9305;DHT22;4690;52.422;13.486;2023-03-31T16:16:38;10.30;99.90
9305;DHT22;4690;52.422;13.486;2023-03-31T16:19:09;10.30;99.90
9305;DHT22;4690;52.422;13.486;2023-03-31T16:21:42;10.30;99.90
9305;DHT22;4690;52.422;13.486;2023-03-31T16:24:12;10.40;99.90
9305;DHT22;4690;52.422;13.486;2023-03-31T16:26:39;10.30;99.90
9305;DHT22;4690;52.422;13.486;2023-03-31T16:29:05;10.20;99.90
9305;DHT22;4690;52.422;13.486;2023-03-31T16:31:37;10.30;99.90
9305;DHT22;4690;52.422;13.486;2023-03-31T16:34:09;10.30;99.90
9305;DHT22;4690;52.422;13.486;2023-03-31T16:36:35;10.30;99.90
9305;DHT22;4690;52.422;13.486;2023-03-31T16:39:03;10.30;99.90
9305;DHT22;4690;52.422;13.486;2023-03-31T16:41:34;10.20;99.90
9305;DHT22;4690;52.422;13.486;2023-03-31T16:44:02;10.20;99.90
9305;DHT22;4690;52.422;13.486;2023-03-31T16:46:28;10.20;99.90
9305;DHT22;4690;52.422;13.486;2023-03-31T16:48:54;10.20;99.90
9305;DHT22;4690;52.422;13.486;2023-03-31T16:51:20;10.30;99.90
9305;DHT22;4690;52.422;13.486;2023-03-31T16:53:46;10.10;99.90
9305;DHT22;4690;52.422;13.486;2023-03-31T16:56:13;10.10;99.90
9305;DHT22;4690;52.422;13.486;2023-03-31T16:58:40;10.10;99.90
9305;DHT22;4690;52.422;13.486;2023-03-31T17:01:07;10.10;99.90
9305;DHT22;4690;52.422;13.486;2023-03-31T17:03:34;10.10;99.90
9305;DHT22;4690;52.422;13.486;2023-03-31T17:06:07;10.10;99.90
9305;DHT22;4690;52.422;13.486;2023-03-31T17:08:35;10.10;99.90
9305;DHT22;4690;52.422;13.486;2023-03-31T17:11:05;10.10;99.90
9305;DHT22;4690;52.422;13.486;2023-03-31T17:13:35;10.10;99.90
9305;DHT22;4690;52.422;13.486;2023-03-31T17:16:02;10.10;99.90
9305;DHT22;4690;52.422;13.486;2023-03-31T17:18:29;10.10;99.90
9305;DHT22;4690;52.422;13.486;2023-03-31T17:21:05;10.10;99.90
9305;DHT22;4690;52.422;13.486;2023-03-31T17:23:33;10.10;99.90
9305;DHT22;4690;52.422;13.486;2023-03-31T17:26:01;10.00;99.90
9305;DHT22;4690;52.422;13.486;2023-03-31T17:28:28;10.00;99.90
9305;DHT22;4690;52.422;13.486;2023-03-31T17:30:55;10.10;99.90
9305;DHT22;4690;52.422;13.486;2023-03-31T17:33:22;10.00;99.90
9305;DHT22;4690;52.422;13.486;2023-03-31T17:35:47;10.00;99.90
9305;DHT22;4690;52.422;13.486;2023-03-31T17:38:13;10.00;99.90
9305;DHT22;4690;52.422;13.486;2023-03-31T17:40:40;10.00;99.90
9305;DHT22;4690;52.422;13.486;2023-03-31T17:43:06;10.10;99.90
9305;DHT22;4690;52.422;13.486;2023-03-31T17:45:32;10.10;99.90
9305;DHT22;4690;52.422;13.486;2023-03-31T17:47:58;10.00;99.90
9305;DHT22;4690;52.422;13.486;2023-03-31T17:50:25;10.00;99.90
9305;DHT22;4690;52.422;13.486;2023-03-31T17:52:52;10.00;99.90
9305;DHT22;4690;52.422;13.486;2023-03-31T17:55:18;10.00;99.90
9305;DHT22;4690;52.422;13.486;2023-03-31T17:57:45;10.00;99.90
9305;DHT22;4690;52.422;13.486;2023-03-31T18:00:11;9.90;99.90
9305;DHT22;4690;52.422;13.486;2023-03-31T18:02:39;9.90;99.90
9305;DHT22;4690;52.422;13.486;2023-03-31T18:05:07;9.90;99.90
9305;DHT22;4690;52.422;13.486;2023-03-31T18:07:34;9.90;99.90
9305;DHT22;4690;52.422;13.486;2023-03-31T18:10:02;9.90;99.90
9305;DHT22;4690;52.422;13.486;2023-03-31T18:12:31;9.90;99.90
9305;DHT22;4690;52.422;13.486;2023-03-31T18:14:57;9.90;99.90
9305;DHT22;4690;52.422;13.486;2023-03-31T18:17:23;9.90;99.90
9305;DHT22;4690;52.422;13.486;2023-03-31T18:19:49;9.90;99.90
9305;DHT22;4690;52.422;13.486;2023-03-31T18:22:15;9.90;99.90
9305;DHT22;4690;52.422;13.486;2023-03-31T18:24:40;9.80;99.90
9305;DHT22;4690;52.422;13.486;2023-03-31T18:27:07;9.90;99.90
9305;DHT22;4690;52.422;13.486;2023-03-31T18:29:32;9.90;99.90
9305;DHT22;4690;52.422;13.486;2023-03-31T18:31:58;9.90;99.90
9305;DHT22;4690;52.422;13.486;2023-03-31T18:34:24;9.90;99.90
9305;DHT22;4690;52.422;13.486;2023-03-31T18:36:50;9.90;99.90
9305;DHT22;4690;52.422;13.486;2023-03-31T18:39:15;9.90;99.90
9305;DHT22;4690;52.422;13.486;2023-03-31T18:41:44;9.90;99.90
9305;DHT22;4690;52.422;13.486;2023-03-31T18:44:12;9.90;99.90
9305;DHT22;4690;52.422;13.486;2023-03-31T18:46:44;9.90;99.90
9305;DHT22;4690;52.422;13.486;2023-03-31T18:49:11;9.90;99.90
9305;DHT22;4690;52.422;13.486;2023-03-31T18:51:39;9.90;99.90
9305;DHT22;4690;52.422;13.486;2023-03-31T18:54:05;9.90;99.90
9305;DHT22;4690;52.422;13.486;2023-03-31T18:56:31;9.90;99.90
9305;DHT22;4690;52.422;13.486;2023-03-31T18:58:57;9.90;99.90
9305;DHT22;4690;52.422;13.486;2023-03-31T19:01:24;10.00;99.90
9305;DHT22;4690;52.422;13.486;2023-03-31T19:03:49;10.00;99.90
9305;DHT22;4690;52.422;13.486;2023-03-31T19:06:15;10.00;99.90
9305;DHT22;4690;52.422;13.486;2023-03-31T19:08:43;10.00;99.90